sensor_id;sensor_type;location;lat;lon;timestamp;P1;durP1;ratioP1;P2;durP2;ratioP2
38787;SDS011;24536;45.488;12.238;2023-03-01T00:01:50;9.15;;;5.50;;
38787;SDS011;24536;45.488;12.238;2023-03-01T00:04:16;7.93;;;5.50;;
38787;SDS011;24536;45.488;12.238;2023-03-01T00:06:42;10.13;;;4.80;;
38787;SDS011;24536;45.488;12.238;2023-03-01T00:09:11;11.68;;;6.10;;
38787;SDS011;24536;45.488;12.238;2023-03-01T00:11:37;8.85;;;5.25;;
38787;SDS011;24536;45.488;12.238;2023-03-01T00:14:03;8.85;;;5.22;;
38787;SDS011;24536;45.488;12.238;2023-03-01T00:16:31;7.80;;;4.95;;
38787;SDS011;24536;45.488;12.238;2023-03-01T00:18:59;8.18;;;4.93;;
38787;SDS011;24536;45.488;12.238;2023-03-01T00:21:25;6.70;;;4.97;;
38787;SDS011;24536;45.488;12.238;2023-03-01T00:23:51;10.40;;;5.40;;
38787;SDS011;24536;45.488;12.238;2023-03-01T00:26:18;7.00;;;4.88;;
38787;SDS011;24536;45.488;12.238;2023-03-01T00:28:45;6.35;;;4.80;;
38787;SDS011;24536;45.488;12.238;2023-03-01T00:31:12;7.18;;;5.35;;
38787;SDS011;24536;45.488;12.238;2023-03-01T00:33:44;8.70;;;5.00;;
38787;SDS011;24536;45.488;12.238;2023-03-01T00:36:10;12.60;;;5.55;;
38787;SDS011;24536;45.488;12.238;2023-03-01T00:38:38;7.78;;;5.38;;
38787;SDS011;24536;45.488;12.238;2023-03-01T00:41:05;8.93;;;5.75;;
38787;SDS011;24536;45.488;12.238;2023-03-01T00:43:38;10.05;;;5.55;;
38787;SDS011;24536;45.488;12.238;2023-03-01T00:46:04;8.05;;;4.85;;
38787;SDS011;24536;45.488;12.238;2023-03-01T00:48:32;10.05;;;5.70;;
38787;SDS011;24536;45.488;12.238;2023-03-01T00:51:08;7.60;;;4.80;;
38787;SDS011;24536;45.488;12.238;2023-03-01T00:53:34;8.63;;;5.57;;
38787;SDS011;24536;45.488;12.238;2023-03-01T00:56:01;7.13;;;5.15;;
38787;SDS011;24536;45.488;12.238;2023-03-01T00:58:27;8.43;;;5.60;;
38787;SDS011;24536;45.488;12.238;2023-03-01T01:00:53;8.82;;;5.38;;
38787;SDS011;24536;45.488;12.238;2023-03-01T01:03:19;9.77;;;5.15;;
38787;SDS011;24536;45.488;12.238;2023-03-01T01:05:45;9.73;;;5.25;;
38787;SDS011;24536;45.488;12.238;2023-03-01T01:08:11;9.48;;;5.80;;
38787;SDS011;24536;45.488;12.238;2023-03-01T01:10:37;9.90;;;5.60;;
38787;SDS011;24536;45.488;12.238;2023-03-01T01:13:03;7.50;;;5.13;;
38787;SDS011;24536;45.488;12.238;2023-03-01T01:15:28;8.07;;;6.07;;
38787;SDS011;24536;45.488;12.238;2023-03-01T01:17:57;11.70;;;6.25;;
38787;SDS011;24536;45.488;12.238;2023-03-01T01:20:23;8.45;;;5.43;;
38787;SDS011;24536;45.488;12.238;2023-03-01T01:22:49;8.65;;;5.07;;
38787;SDS011;24536;45.488;12.238;2023-03-01T01:25:16;6.57;;;4.95;;
38787;SDS011;24536;45.488;12.238;2023-03-01T01:27:42;9.25;;;6.10;;
38787;SDS011;24536;45.488;12.238;2023-03-01T01:30:07;9.27;;;5.90;;
38787;SDS011;24536;45.488;12.238;2023-03-01T01:32:33;7.85;;;4.80;;
38787;SDS011;24536;45.488;12.238;2023-03-01T01:34:59;8.07;;;5.78;;
38787;SDS011;24536;45.488;12.238;2023-03-01T01:37:25;9.32;;;5.95;;
38787;SDS011;24536;45.488;12.238;2023-03-01T01:39:56;10.60;;;5.93;;
38787;SDS011;24536;45.488;12.238;2023-03-01T01:42:24;7.65;;;4.78;;
38787;SDS011;24536;45.488;12.238;2023-03-01T01:45:15;8.43;;;4.80;;
38787;SDS011;24536;45.488;12.238;2023-03-01T01:47:50;9.40;;;5.13;;
38787;SDS011;24536;45.488;12.238;2023-03-01T01:50:17;10.25;;;6.32;;
38787;SDS011;24536;45.488;12.238;2023-03-01T01:52:44;8.45;;;5.32;;
38787;SDS011;24536;45.488;12.238;2023-03-01T01:55:12;9.90;;;6.10;;
38787;SDS011;24536;45.488;12.238;2023-03-01T01:57:46;8.65;;;6.25;;
38787;SDS011;24536;45.488;12.238;2023-03-01T02:00:20;8.68;;;5.30;;
38787;SDS011;24536;45.488;12.238;2023-03-01T02:02:48;6.72;;;4.97;;
38787;SDS011;24536;45.488;12.238;2023-03-01T02:06:21;7.57;;;5.38;;
38787;SDS011;24536;45.488;12.238;2023-03-01T02:08:21;7.93;;;4.82;;
38787;SDS011;24536;45.488;12.238;2023-03-01T02:10:49;8.95;;;6.20;;
38787;SDS011;24536;45.488;12.238;2023-03-01T02:13:17;7.68;;;5.50;;
38787;SDS011;24536;45.488;12.238;2023-03-01T02:15:43;10.40;;;6.22;;
38787;SDS011;24536;45.488;12.238;2023-03-01T02:18:10;10.52;;;6.57;;
38787;SDS011;24536;45.488;12.238;2023-03-01T02:23:11;8.95;;;5.07;;
38787;SDS011;24536;45.488;12.238;2023-03-01T02:30:56;8.85;;;4.90;;
38787;SDS011;24536;45.488;12.238;2023-03-01T02:33:40;7.68;;;4.63;;
38787;SDS011;24536;45.488;12.238;2023-03-01T02:36:12;5.70;;;4.50;;
38787;SDS011;24536;45.488;12.238;2023-03-01T02:38:47;7.78;;;5.13;;
38787;SDS011;24536;45.488;12.238;2023-03-01T02:41:15;7.47;;;5.03;;
38787;SDS011;24536;45.488;12.238;2023-03-01T02:43:42;6.50;;;4.55;;
38787;SDS011;24536;45.488;12.238;2023-03-01T02:46:14;9.70;;;5.32;;
38787;SDS011;24536;45.488;12.238;2023-03-01T02:48:42;7.97;;;5.43;;
38787;SDS011;24536;45.488;12.238;2023-03-01T02:51:20;6.13;;;4.40;;
38787;SDS011;24536;45.488;12.238;2023-03-01T02:53:53;6.63;;;4.55;;
38787;SDS011;24536;45.488;12.238;2023-03-01T02:56:39;10.75;;;4.95;;
38787;SDS011;24536;45.488;12.238;2023-03-01T02:59:06;8.00;;;4.82;;
38787;SDS011;24536;45.488;12.238;2023-03-01T03:01:32;7.75;;;5.25;;
38787;SDS011;24536;45.488;12.238;2023-03-01T03:04:04;8.70;;;6.10;;
38787;SDS011;24536;45.488;12.238;2023-03-01T03:06:31;8.32;;;5.22;;
38787;SDS011;24536;45.488;12.238;2023-03-01T03:08:58;7.45;;;4.93;;
38787;SDS011;24536;45.488;12.238;2023-03-01T03:11:23;9.00;;;5.43;;
38787;SDS011;24536;45.488;12.238;2023-03-01T03:13:49;6.72;;;4.82;;
38787;SDS011;24536;45.488;12.238;2023-03-01T03:16:15;8.02;;;5.22;;
38787;SDS011;24536;45.488;12.238;2023-03-01T03:18:41;7.15;;;4.65;;
38787;SDS011;24536;45.488;12.238;2023-03-01T03:21:07;7.13;;;4.60;;
38787;SDS011;24536;45.488;12.238;2023-03-01T03:23:37;5.13;;;4.00;;
38787;SDS011;24536;45.488;12.238;2023-03-01T03:26:03;7.63;;;5.00;;
38787;SDS011;24536;45.488;12.238;2023-03-01T03:28:30;7.47;;;5.18;;
38787;SDS011;24536;45.488;12.238;2023-03-01T03:30:56;6.68;;;4.47;;
38787;SDS011;24536;45.488;12.238;2023-03-01T03:33:23;7.53;;;4.55;;
38787;SDS011;24536;45.488;12.238;2023-03-01T03:35:49;6.28;;;4.30;;
38787;SDS011;24536;45.488;12.238;2023-03-01T03:38:17;6.53;;;4.65;;
38787;SDS011;24536;45.488;12.238;2023-03-01T03:40:46;8.55;;;4.80;;
38787;SDS011;24536;45.488;12.238;2023-03-01T03:43:30;7.25;;;4.60;;
38787;SDS011;24536;45.488;12.238;2023-03-01T03:45:57;8.60;;;4.90;;
38787;SDS011;24536;45.488;12.238;2023-03-01T03:48:23;7.25;;;4.85;;
38787;SDS011;24536;45.488;12.238;2023-03-01T03:50:50;7.65;;;4.80;;
38787;SDS011;24536;45.488;12.238;2023-03-01T03:53:19;8.85;;;4.90;;
38787;SDS011;24536;45.488;12.238;2023-03-01T03:55:45;9.30;;;4.32;;
38787;SDS011;24536;45.488;12.238;2023-03-01T03:58:14;5.28;;;3.60;;
38787;SDS011;24536;45.488;12.238;2023-03-01T04:00:41;8.40;;;4.90;;
38787;SDS011;24536;45.488;12.238;2023-03-01T04:03:09;8.00;;;4.85;;
38787;SDS011;24536;45.488;12.238;2023-03-01T04:05:37;7.30;;;4.53;;
38787;SDS011;24536;45.488;12.238;2023-03-01T04:08:04;8.40;;;4.60;;
38787;SDS011;24536;45.488;12.238;2023-03-01T04:10:34;7.38;;;4.82;;
38787;SDS011;24536;45.488;12.238;2023-03-01T04:13:01;6.20;;;4.07;;
38787;SDS011;24536;45.488;12.238;2023-03-01T04:15:27;5.88;;;4.30;;
38787;SDS011;24536;45.488;12.238;2023-03-01T04:17:53;10.15;;;5.28;;
38787;SDS011;24536;45.488;12.238;2023-03-01T04:20:24;6.53;;;3.90;;
38787;SDS011;24536;45.488;12.238;2023-03-01T04:25:47;8.38;;;4.95;;
38787;SDS011;24536;45.488;12.238;2023-03-01T04:28:26;7.63;;;5.50;;
38787;SDS011;24536;45.488;12.238;2023-03-01T04:30:54;8.43;;;5.10;;
38787;SDS011;24536;45.488;12.238;2023-03-01T04:33:22;7.63;;;4.95;;
38787;SDS011;24536;45.488;12.238;2023-03-01T04:35:48;6.90;;;4.05;;
38787;SDS011;24536;45.488;12.238;2023-03-01T04:38:14;6.35;;;4.05;;
38787;SDS011;24536;45.488;12.238;2023-03-01T04:40:41;10.45;;;6.05;;
38787;SDS011;24536;45.488;12.238;2023-03-01T04:43:08;9.38;;;4.60;;
38787;SDS011;24536;45.488;12.238;2023-03-01T04:45:35;6.57;;;4.65;;
38787;SDS011;24536;45.488;12.238;2023-03-01T04:48:01;6.63;;;5.13;;
38787;SDS011;24536;45.488;12.238;2023-03-01T04:50:27;8.73;;;5.85;;
38787;SDS011;24536;45.488;12.238;2023-03-01T04:52:53;6.50;;;4.35;;
38787;SDS011;24536;45.488;12.238;2023-03-01T04:55:19;8.00;;;4.38;;
38787;SDS011;24536;45.488;12.238;2023-03-01T04:57:44;9.88;;;4.82;;
38787;SDS011;24536;45.488;12.238;2023-03-01T05:00:10;5.88;;;3.92;;
38787;SDS011;24536;45.488;12.238;2023-03-01T05:02:51;7.65;;;4.82;;
38787;SDS011;24536;45.488;12.238;2023-03-01T05:05:24;7.03;;;4.57;;
38787;SDS011;24536;45.488;12.238;2023-03-01T05:07:52;7.68;;;5.22;;
38787;SDS011;24536;45.488;12.238;2023-03-01T05:10:19;6.80;;;4.40;;
38787;SDS011;24536;45.488;12.238;2023-03-01T05:12:45;10.43;;;4.88;;
38787;SDS011;24536;45.488;12.238;2023-03-01T05:15:11;7.90;;;5.05;;
38787;SDS011;24536;45.488;12.238;2023-03-01T05:17:37;7.38;;;4.57;;
38787;SDS011;24536;45.488;12.238;2023-03-01T05:20:03;7.47;;;4.28;;
38787;SDS011;24536;45.488;12.238;2023-03-01T05:24:59;7.13;;;4.32;;
38787;SDS011;24536;45.488;12.238;2023-03-01T05:27:24;9.18;;;5.00;;
38787;SDS011;24536;45.488;12.238;2023-03-01T05:29:50;10.75;;;5.20;;
38787;SDS011;24536;45.488;12.238;2023-03-01T05:32:18;7.28;;;4.35;;
38787;SDS011;24536;45.488;12.238;2023-03-01T05:34:44;7.55;;;4.78;;
38787;SDS011;24536;45.488;12.238;2023-03-01T05:37:11;7.72;;;4.07;;
38787;SDS011;24536;45.488;12.238;2023-03-01T05:39:38;8.98;;;4.57;;
38787;SDS011;24536;45.488;12.238;2023-03-01T05:42:04;10.90;;;5.30;;
38787;SDS011;24536;45.488;12.238;2023-03-01T05:44:30;9.77;;;5.70;;
38787;SDS011;24536;45.488;12.238;2023-03-01T05:46:56;8.45;;;5.40;;
38787;SDS011;24536;45.488;12.238;2023-03-01T05:49:22;6.10;;;4.63;;
38787;SDS011;24536;45.488;12.238;2023-03-01T05:51:51;7.47;;;4.40;;
38787;SDS011;24536;45.488;12.238;2023-03-01T05:54:18;8.23;;;5.53;;
38787;SDS011;24536;45.488;12.238;2023-03-01T05:56:45;7.38;;;4.30;;
38787;SDS011;24536;45.488;12.238;2023-03-01T05:59:11;7.20;;;4.30;;
38787;SDS011;24536;45.488;12.238;2023-03-01T06:01:41;12.10;;;5.68;;
38787;SDS011;24536;45.488;12.238;2023-03-01T06:04:07;11.10;;;5.35;;
38787;SDS011;24536;45.488;12.238;2023-03-01T06:06:34;6.75;;;3.78;;
38787;SDS011;24536;45.488;12.238;2023-03-01T06:09:02;5.93;;;4.13;;
38787;SDS011;24536;45.488;12.238;2023-03-01T06:11:29;8.00;;;4.10;;
38787;SDS011;24536;45.488;12.238;2023-03-01T06:13:54;8.63;;;4.00;;
38787;SDS011;24536;45.488;12.238;2023-03-01T06:16:20;6.30;;;4.32;;
38787;SDS011;24536;45.488;12.238;2023-03-01T06:18:46;7.75;;;4.50;;
38787;SDS011;24536;45.488;12.238;2023-03-01T06:21:11;6.60;;;4.20;;
38787;SDS011;24536;45.488;12.238;2023-03-01T06:23:37;6.65;;;4.10;;
38787;SDS011;24536;45.488;12.238;2023-03-01T06:26:06;6.22;;;4.30;;
38787;SDS011;24536;45.488;12.238;2023-03-01T06:28:33;5.85;;;3.85;;
38787;SDS011;24536;45.488;12.238;2023-03-01T06:30:58;8.93;;;4.68;;
38787;SDS011;24536;45.488;12.238;2023-03-01T06:33:24;5.30;;;4.05;;
38787;SDS011;24536;45.488;12.238;2023-03-01T06:35:50;10.95;;;3.90;;
38787;SDS011;24536;45.488;12.238;2023-03-01T06:38:17;4.95;;;3.60;;
38787;SDS011;24536;45.488;12.238;2023-03-01T06:40:44;6.50;;;4.00;;
38787;SDS011;24536;45.488;12.238;2023-03-01T06:43:10;6.85;;;4.10;;
38787;SDS011;24536;45.488;12.238;2023-03-01T06:45:36;9.00;;;4.53;;
38787;SDS011;24536;45.488;12.238;2023-03-01T06:48:03;4.85;;;3.55;;
38787;SDS011;24536;45.488;12.238;2023-03-01T06:50:29;5.53;;;4.00;;
38787;SDS011;24536;45.488;12.238;2023-03-01T06:52:56;8.40;;;4.07;;
38787;SDS011;24536;45.488;12.238;2023-03-01T06:55:22;9.15;;;4.30;;
38787;SDS011;24536;45.488;12.238;2023-03-01T06:57:47;6.38;;;3.53;;
38787;SDS011;24536;45.488;12.238;2023-03-01T07:00:13;6.35;;;4.03;;
38787;SDS011;24536;45.488;12.238;2023-03-01T07:02:39;6.50;;;4.32;;
38787;SDS011;24536;45.488;12.238;2023-03-01T07:05:06;6.35;;;3.30;;
38787;SDS011;24536;45.488;12.238;2023-03-01T07:07:32;5.90;;;3.67;;
38787;SDS011;24536;45.488;12.238;2023-03-01T07:09:58;7.45;;;4.10;;
38787;SDS011;24536;45.488;12.238;2023-03-01T07:12:23;6.78;;;3.88;;
38787;SDS011;24536;45.488;12.238;2023-03-01T07:14:49;6.57;;;4.55;;
38787;SDS011;24536;45.488;12.238;2023-03-01T07:17:14;6.28;;;4.00;;
38787;SDS011;24536;45.488;12.238;2023-03-01T07:19:40;4.85;;;4.00;;
38787;SDS011;24536;45.488;12.238;2023-03-01T07:22:06;9.70;;;3.97;;
38787;SDS011;24536;45.488;12.238;2023-03-01T07:24:33;7.05;;;4.05;;
38787;SDS011;24536;45.488;12.238;2023-03-01T07:26:59;4.93;;;3.65;;
38787;SDS011;24536;45.488;12.238;2023-03-01T07:29:24;5.60;;;3.55;;
38787;SDS011;24536;45.488;12.238;2023-03-01T07:31:50;5.72;;;3.42;;
38787;SDS011;24536;45.488;12.238;2023-03-01T07:34:16;10.60;;;4.32;;
38787;SDS011;24536;45.488;12.238;2023-03-01T07:36:41;5.03;;;3.38;;
38787;SDS011;24536;45.488;12.238;2023-03-01T07:39:09;6.38;;;3.97;;
38787;SDS011;24536;45.488;12.238;2023-03-01T07:41:35;5.75;;;4.07;;
38787;SDS011;24536;45.488;12.238;2023-03-01T07:44:01;6.55;;;4.22;;
38787;SDS011;24536;45.488;12.238;2023-03-01T07:46:27;8.15;;;4.47;;
38787;SDS011;24536;45.488;12.238;2023-03-01T07:48:53;6.50;;;3.70;;
38787;SDS011;24536;45.488;12.238;2023-03-01T07:51:18;7.38;;;4.18;;
38787;SDS011;24536;45.488;12.238;2023-03-01T07:53:47;6.53;;;4.00;;
38787;SDS011;24536;45.488;12.238;2023-03-01T07:56:13;4.85;;;3.28;;
38787;SDS011;24536;45.488;12.238;2023-03-01T07:58:43;5.32;;;3.25;;
38787;SDS011;24536;45.488;12.238;2023-03-01T08:01:12;7.43;;;3.80;;
38787;SDS011;24536;45.488;12.238;2023-03-01T08:03:42;9.77;;;4.70;;
38787;SDS011;24536;45.488;12.238;2023-03-01T08:06:11;9.93;;;3.90;;
38787;SDS011;24536;45.488;12.238;2023-03-01T08:08:38;4.88;;;3.30;;
38787;SDS011;24536;45.488;12.238;2023-03-01T08:11:05;6.18;;;3.78;;
38787;SDS011;24536;45.488;12.238;2023-03-01T08:13:32;5.03;;;3.65;;
38787;SDS011;24536;45.488;12.238;2023-03-01T08:16:04;7.72;;;4.22;;
38787;SDS011;24536;45.488;12.238;2023-03-01T08:18:32;7.20;;;4.18;;
38787;SDS011;24536;45.488;12.238;2023-03-01T08:21:05;6.40;;;3.08;;
38787;SDS011;24536;45.488;12.238;2023-03-01T08:23:32;7.25;;;3.95;;
38787;SDS011;24536;45.488;12.238;2023-03-01T08:26:04;7.05;;;4.40;;
38787;SDS011;24536;45.488;12.238;2023-03-01T08:28:31;10.63;;;4.50;;
38787;SDS011;24536;45.488;12.238;2023-03-01T08:30:57;5.80;;;3.47;;
38787;SDS011;24536;45.488;12.238;2023-03-01T08:33:23;5.25;;;3.60;;
38787;SDS011;24536;45.488;12.238;2023-03-01T08:35:49;6.55;;;4.43;;
38787;SDS011;24536;45.488;12.238;2023-03-01T08:38:14;7.45;;;3.65;;
38787;SDS011;24536;45.488;12.238;2023-03-01T08:40:42;6.03;;;4.15;;
38787;SDS011;24536;45.488;12.238;2023-03-01T08:43:09;18.03;;;5.20;;
38787;SDS011;24536;45.488;12.238;2023-03-01T08:45:35;14.32;;;5.13;;
38787;SDS011;24536;45.488;12.238;2023-03-01T08:48:01;7.03;;;4.38;;
38787;SDS011;24536;45.488;12.238;2023-03-01T08:50:26;11.45;;;4.53;;
38787;SDS011;24536;45.488;12.238;2023-03-01T08:52:52;10.20;;;4.32;;
38787;SDS011;24536;45.488;12.238;2023-03-01T08:55:17;19.33;;;4.53;;
38787;SDS011;24536;45.488;12.238;2023-03-01T08:57:43;9.55;;;3.72;;
38787;SDS011;24536;45.488;12.238;2023-03-01T09:00:09;5.38;;;3.15;;
38787;SDS011;24536;45.488;12.238;2023-03-01T09:02:39;8.25;;;3.50;;
38787;SDS011;24536;45.488;12.238;2023-03-01T09:05:05;5.03;;;3.67;;
38787;SDS011;24536;45.488;12.238;2023-03-01T09:07:31;4.88;;;3.08;;
38787;SDS011;24536;45.488;12.238;2023-03-01T09:09:57;6.32;;;3.58;;
38787;SDS011;24536;45.488;12.238;2023-03-01T09:12:22;5.63;;;3.10;;
38787;SDS011;24536;45.488;12.238;2023-03-01T09:14:49;6.57;;;3.00;;
38787;SDS011;24536;45.488;12.238;2023-03-01T09:17:15;5.35;;;3.35;;
38787;SDS011;24536;45.488;12.238;2023-03-01T09:19:41;6.28;;;3.80;;
38787;SDS011;24536;45.488;12.238;2023-03-01T09:22:06;5.82;;;3.42;;
38787;SDS011;24536;45.488;12.238;2023-03-01T09:24:32;5.82;;;3.50;;
38787;SDS011;24536;45.488;12.238;2023-03-01T09:26:58;5.80;;;3.65;;
38787;SDS011;24536;45.488;12.238;2023-03-01T09:29:24;5.32;;;3.30;;
38787;SDS011;24536;45.488;12.238;2023-03-01T09:31:50;5.45;;;3.35;;
38787;SDS011;24536;45.488;12.238;2023-03-01T09:34:16;5.30;;;3.88;;
38787;SDS011;24536;45.488;12.238;2023-03-01T09:36:47;5.00;;;3.00;;
38787;SDS011;24536;45.488;12.238;2023-03-01T09:39:13;8.85;;;4.32;;
38787;SDS011;24536;45.488;12.238;2023-03-01T09:47:33;11.30;;;3.88;;
38787;SDS011;24536;45.488;12.238;2023-03-01T09:52:32;4.95;;;3.33;;
38787;SDS011;24536;45.488;12.238;2023-03-01T09:55:13;7.50;;;4.85;;
38787;SDS011;24536;45.488;12.238;2023-03-01T10:00:20;7.95;;;4.05;;
38787;SDS011;24536;45.488;12.238;2023-03-01T10:02:51;5.18;;;3.40;;
38787;SDS011;24536;45.488;12.238;2023-03-01T10:11:17;11.55;;;4.53;;
38787;SDS011;24536;45.488;12.238;2023-03-01T10:19:31;6.80;;;4.25;;
38787;SDS011;24536;45.488;12.238;2023-03-01T10:24:41;7.60;;;3.92;;
38787;SDS011;24536;45.488;12.238;2023-03-01T10:32:25;15.95;;;4.72;;
38787;SDS011;24536;45.488;12.238;2023-03-01T10:34:51;9.02;;;4.05;;
38787;SDS011;24536;45.488;12.238;2023-03-01T10:37:18;8.88;;;4.32;;
38787;SDS011;24536;45.488;12.238;2023-03-01T10:42:34;7.53;;;3.33;;
38787;SDS011;24536;45.488;12.238;2023-03-01T10:53:24;14.32;;;2.58;;
38787;SDS011;24536;45.488;12.238;2023-03-01T10:56:01;9.05;;;3.35;;
38787;SDS011;24536;45.488;12.238;2023-03-01T10:58:36;12.93;;;3.53;;
38787;SDS011;24536;45.488;12.238;2023-03-01T11:01:04;10.68;;;3.40;;
38787;SDS011;24536;45.488;12.238;2023-03-01T11:06:33;9.50;;;3.88;;
38787;SDS011;24536;45.488;12.238;2023-03-01T11:09:18;8.32;;;3.17;;
38787;SDS011;24536;45.488;12.238;2023-03-01T11:11:46;7.78;;;3.08;;
38787;SDS011;24536;45.488;12.238;2023-03-01T11:16:45;17.25;;;4.63;;
38787;SDS011;24536;45.488;12.238;2023-03-01T11:19:14;7.97;;;3.35;;
38787;SDS011;24536;45.488;12.238;2023-03-01T11:24:46;10.23;;;4.03;;
38787;SDS011;24536;45.488;12.238;2023-03-01T11:27:24;7.53;;;4.30;;
38787;SDS011;24536;45.488;12.238;2023-03-01T11:30:05;10.73;;;3.78;;
38787;SDS011;24536;45.488;12.238;2023-03-01T11:33:29;7.80;;;3.78;;
38787;SDS011;24536;45.488;12.238;2023-03-01T11:35:33;9.38;;;4.22;;
38787;SDS011;24536;45.488;12.238;2023-03-01T11:38:22;7.20;;;3.33;;
38787;SDS011;24536;45.488;12.238;2023-03-01T11:43:34;10.90;;;3.67;;
38787;SDS011;24536;45.488;12.238;2023-03-01T11:54:22;13.68;;;3.38;;
38787;SDS011;24536;45.488;12.238;2023-03-01T12:22:20;11.15;;;3.95;;
38787;SDS011;24536;45.488;12.238;2023-03-01T12:28:04;9.48;;;3.78;;
38787;SDS011;24536;45.488;12.238;2023-03-01T12:30:42;11.90;;;3.67;;
38787;SDS011;24536;45.488;12.238;2023-03-01T12:42:05;8.85;;;4.35;;
38787;SDS011;24536;45.488;12.238;2023-03-01T12:57:51;4.32;;;2.88;;
38787;SDS011;24536;45.488;12.238;2023-03-01T13:01:44;8.35;;;3.63;;
38787;SDS011;24536;45.488;12.238;2023-03-01T13:11:41;4.80;;;3.28;;
38787;SDS011;24536;45.488;12.238;2023-03-01T13:16:47;5.93;;;3.22;;
38787;SDS011;24536;45.488;12.238;2023-03-01T13:19:17;5.85;;;3.05;;
38787;SDS011;24536;45.488;12.238;2023-03-01T13:21:43;9.05;;;4.57;;
38787;SDS011;24536;45.488;12.238;2023-03-01T13:29:45;5.30;;;2.80;;
38787;SDS011;24536;45.488;12.238;2023-03-01T13:37:44;7.70;;;3.38;;
38787;SDS011;24536;45.488;12.238;2023-03-01T13:42:48;7.43;;;3.90;;
38787;SDS011;24536;45.488;12.238;2023-03-01T13:48:00;6.32;;;3.00;;
38787;SDS011;24536;45.488;12.238;2023-03-01T13:50:32;4.35;;;3.00;;
38787;SDS011;24536;45.488;12.238;2023-03-01T13:53:05;11.05;;;3.30;;
38787;SDS011;24536;45.488;12.238;2023-03-01T14:01:02;4.55;;;2.97;;
38787;SDS011;24536;45.488;12.238;2023-03-01T14:03:30;2.88;;;2.33;;
38787;SDS011;24536;45.488;12.238;2023-03-01T14:06:09;3.55;;;2.60;;
38787;SDS011;24536;45.488;12.238;2023-03-01T14:08:40;5.00;;;3.42;;
38787;SDS011;24536;45.488;12.238;2023-03-01T14:14:07;5.43;;;2.75;;
38787;SDS011;24536;45.488;12.238;2023-03-01T14:16:49;3.55;;;2.53;;
38787;SDS011;24536;45.488;12.238;2023-03-01T14:19:25;4.00;;;2.67;;
38787;SDS011;24536;45.488;12.238;2023-03-01T14:24:48;4.15;;;2.60;;
38787;SDS011;24536;45.488;12.238;2023-03-01T14:27:20;5.50;;;2.40;;
38787;SDS011;24536;45.488;12.238;2023-03-01T14:29:56;4.13;;;2.60;;
38787;SDS011;24536;45.488;12.238;2023-03-01T14:32:28;4.32;;;2.83;;
38787;SDS011;24536;45.488;12.238;2023-03-01T14:34:55;4.10;;;2.85;;
38787;SDS011;24536;45.488;12.238;2023-03-01T14:37:27;6.18;;;3.10;;
38787;SDS011;24536;45.488;12.238;2023-03-01T14:39:58;4.75;;;2.53;;
38787;SDS011;24536;45.488;12.238;2023-03-01T14:42:26;4.85;;;2.97;;
38787;SDS011;24536;45.488;12.238;2023-03-01T14:45:00;6.78;;;3.33;;
38787;SDS011;24536;45.488;12.238;2023-03-01T14:47:29;6.15;;;2.25;;
38787;SDS011;24536;45.488;12.238;2023-03-01T14:50:13;4.07;;;2.70;;
38787;SDS011;24536;45.488;12.238;2023-03-01T14:52:46;5.60;;;2.42;;
38787;SDS011;24536;45.488;12.238;2023-03-01T14:55:16;4.47;;;2.55;;
38787;SDS011;24536;45.488;12.238;2023-03-01T14:57:45;4.82;;;2.15;;
38787;SDS011;24536;45.488;12.238;2023-03-01T15:00:17;4.03;;;2.10;;
38787;SDS011;24536;45.488;12.238;2023-03-01T15:02:44;4.50;;;2.63;;
38787;SDS011;24536;45.488;12.238;2023-03-01T15:05:13;2.53;;;1.85;;
38787;SDS011;24536;45.488;12.238;2023-03-01T15:07:40;5.38;;;2.58;;
38787;SDS011;24536;45.488;12.238;2023-03-01T15:10:24;6.22;;;2.25;;
38787;SDS011;24536;45.488;12.238;2023-03-01T15:12:52;6.57;;;3.35;;
38787;SDS011;24536;45.488;12.238;2023-03-01T15:20:49;3.63;;;2.17;;
38787;SDS011;24536;45.488;12.238;2023-03-01T15:23:24;3.45;;;2.10;;
38787;SDS011;24536;45.488;12.238;2023-03-01T15:25:52;6.78;;;2.10;;
38787;SDS011;24536;45.488;12.238;2023-03-01T15:34:49;5.25;;;1.77;;
38787;SDS011;24536;45.488;12.238;2023-03-01T15:43:58;7.63;;;1.80;;
38787;SDS011;24536;45.488;12.238;2023-03-01T15:46:30;10.88;;;2.40;;
38787;SDS011;24536;45.488;12.238;2023-03-01T15:49:02;7.65;;;2.30;;
38787;SDS011;24536;45.488;12.238;2023-03-01T15:51:31;13.73;;;2.53;;
38787;SDS011;24536;45.488;12.238;2023-03-01T15:54:02;5.00;;;1.98;;
38787;SDS011;24536;45.488;12.238;2023-03-01T15:56:38;5.47;;;1.83;;
38787;SDS011;24536;45.488;12.238;2023-03-01T15:59:04;5.13;;;2.30;;
38787;SDS011;24536;45.488;12.238;2023-03-01T16:01:31;6.78;;;2.47;;
38787;SDS011;24536;45.488;12.238;2023-03-01T16:03:59;4.43;;;2.10;;
38787;SDS011;24536;45.488;12.238;2023-03-01T16:06:24;8.70;;;2.60;;
38787;SDS011;24536;45.488;12.238;2023-03-01T16:08:50;4.95;;;2.47;;
38787;SDS011;24536;45.488;12.238;2023-03-01T16:11:18;5.35;;;2.00;;
38787;SDS011;24536;45.488;12.238;2023-03-01T16:13:45;5.00;;;1.83;;
38787;SDS011;24536;45.488;12.238;2023-03-01T16:16:11;4.22;;;1.63;;
38787;SDS011;24536;45.488;12.238;2023-03-01T16:18:40;3.83;;;1.60;;
38787;SDS011;24536;45.488;12.238;2023-03-01T16:21:11;10.70;;;1.80;;
38787;SDS011;24536;45.488;12.238;2023-03-01T16:23:40;7.85;;;2.25;;
38787;SDS011;24536;45.488;12.238;2023-03-01T16:26:06;7.40;;;1.92;;
38787;SDS011;24536;45.488;12.238;2023-03-01T16:28:32;3.90;;;1.88;;
38787;SDS011;24536;45.488;12.238;2023-03-01T16:30:58;4.30;;;1.58;;
38787;SDS011;24536;45.488;12.238;2023-03-01T16:33:26;4.05;;;2.05;;
38787;SDS011;24536;45.488;12.238;2023-03-01T16:35:52;7.07;;;2.70;;
38787;SDS011;24536;45.488;12.238;2023-03-01T16:38:17;5.88;;;1.83;;
38787;SDS011;24536;45.488;12.238;2023-03-01T16:40:46;3.15;;;1.83;;
38787;SDS011;24536;45.488;12.238;2023-03-01T16:43:13;7.50;;;2.30;;
38787;SDS011;24536;45.488;12.238;2023-03-01T16:45:38;4.63;;;2.17;;
38787;SDS011;24536;45.488;12.238;2023-03-01T16:48:05;4.88;;;2.10;;
38787;SDS011;24536;45.488;12.238;2023-03-01T16:50:31;5.68;;;1.77;;
38787;SDS011;24536;45.488;12.238;2023-03-01T16:52:57;6.60;;;2.00;;
38787;SDS011;24536;45.488;12.238;2023-03-01T16:55:23;2.90;;;1.73;;
38787;SDS011;24536;45.488;12.238;2023-03-01T16:57:48;5.85;;;2.92;;
38787;SDS011;24536;45.488;12.238;2023-03-01T17:00:16;3.97;;;2.67;;
38787;SDS011;24536;45.488;12.238;2023-03-01T17:02:42;4.60;;;2.90;;
38787;SDS011;24536;45.488;12.238;2023-03-01T17:05:09;4.90;;;2.35;;
38787;SDS011;24536;45.488;12.238;2023-03-01T17:07:36;4.95;;;3.05;;
38787;SDS011;24536;45.488;12.238;2023-03-01T17:10:03;4.65;;;2.70;;
38787;SDS011;24536;45.488;12.238;2023-03-01T17:12:33;4.35;;;2.22;;
38787;SDS011;24536;45.488;12.238;2023-03-01T17:14:59;3.85;;;2.03;;
38787;SDS011;24536;45.488;12.238;2023-03-01T17:17:25;3.88;;;1.60;;
38787;SDS011;24536;45.488;12.238;2023-03-01T17:19:51;3.80;;;1.80;;
38787;SDS011;24536;45.488;12.238;2023-03-01T17:22:17;2.67;;;1.70;;
38787;SDS011;24536;45.488;12.238;2023-03-01T17:24:43;7.05;;;2.63;;
38787;SDS011;24536;45.488;12.238;2023-03-01T17:27:10;2.00;;;1.42;;
38787;SDS011;24536;45.488;12.238;2023-03-01T17:29:37;2.15;;;1.60;;
38787;SDS011;24536;45.488;12.238;2023-03-01T17:32:04;3.03;;;2.00;;
38787;SDS011;24536;45.488;12.238;2023-03-01T17:34:30;2.63;;;1.70;;
38787;SDS011;24536;45.488;12.238;2023-03-01T17:36:57;1.67;;;1.50;;
38787;SDS011;24536;45.488;12.238;2023-03-01T17:39:23;1.85;;;1.63;;
38787;SDS011;24536;45.488;12.238;2023-03-01T17:41:55;2.30;;;1.83;;
38787;SDS011;24536;45.488;12.238;2023-03-01T17:44:21;3.88;;;1.85;;